createdAt,value
2017-06-01T00:00:46.502Z,66.00
2017-06-01T00:03:15.601Z,66.20
2017-06-01T00:05:44.802Z,66.20
2017-06-01T00:08:13.907Z,66.40
2017-06-01T00:10:43.002Z,66.80
2017-06-01T00:13:12.059Z,66.90
2017-06-01T00:15:41.181Z,67.20
2017-06-01T00:18:10.309Z,67.70
2017-06-01T00:20:39.370Z,67.90
2017-06-01T00:23:08.486Z,68.50
2017-06-01T00:25:37.537Z,68.50
2017-06-01T00:28:07.435Z,68.90
2017-06-01T00:30:36.576Z,69.00
2017-06-01T00:33:05.672Z,68.90
2017-06-01T00:35:34.778Z,70.00
2017-06-01T00:38:03.827Z,69.40
2017-06-01T00:40:32.967Z,69.60
2017-06-01T00:43:02.012Z,70.00
2017-06-01T00:45:31.108Z,70.10
2017-06-01T00:48:00.254Z,70.70
2017-06-01T00:50:29.304Z,70.80
2017-06-01T00:52:58.473Z,70.80
2017-06-01T00:55:27.614Z,70.80
2017-06-01T00:57:56.802Z,71.10
2017-06-01T01:00:25.877Z,71.80
2017-06-01T01:02:54.924Z,71.90
2017-06-01T01:05:24.050Z,71.60
2017-06-01T01:07:53.167Z,71.90
2017-06-01T01:10:22.241Z,72.30
2017-06-01T01:12:51.333Z,72.40
2017-06-01T01:15:20.390Z,72.30
2017-06-01T01:17:49.533Z,72.40
2017-06-01T01:20:18.594Z,72.60
2017-06-01T01:22:47.724Z,72.70
2017-06-01T01:25:16.834Z,72.80
2017-06-01T01:27:45.914Z,73.90
2017-06-01T01:30:15.009Z,73.00
2017-06-01T01:32:44.074Z,73.30
2017-06-01T01:35:13.209Z,73.40
2017-06-01T01:37:42.270Z,73.60
2017-06-01T01:40:11.328Z,73.60
2017-06-01T01:42:40.393Z,73.60
2017-06-01T01:45:09.432Z,73.80
2017-06-01T01:47:38.514Z,74.20
2017-06-01T01:50:07.557Z,74.30
2017-06-01T01:52:36.677Z,74.50
2017-06-01T01:55:05.774Z,74.30
2017-06-01T01:57:34.859Z,74.30
2017-06-01T02:00:03.967Z,75.00
2017-06-01T02:02:33.004Z,75.00
2017-06-01T02:05:02.148Z,75.30
2017-06-01T02:07:31.245Z,75.40
2017-06-01T02:10:00.346Z,75.70
2017-06-01T02:12:29.435Z,76.20
2017-06-01T02:14:58.482Z,76.60
2017-06-01T02:17:27.574Z,77.20
2017-06-01T02:19:56.637Z,77.50
2017-06-01T02:22:25.734Z,78.40
2017-06-01T02:24:54.930Z,77.80
2017-06-01T02:27:24.014Z,78.20
2017-06-01T02:29:53.117Z,78.20
2017-06-01T02:32:22.316Z,79.20
2017-06-01T02:34:51.368Z,78.50
2017-06-01T02:37:20.453Z,78.70
2017-06-01T02:39:49.500Z,78.70
2017-06-01T02:42:18.599Z,78.90
2017-06-01T02:44:47.701Z,79.00
2017-06-01T02:47:16.754Z,79.50
2017-06-01T02:49:45.891Z,79.00
2017-06-01T02:52:14.960Z,79.00
2017-06-01T02:54:44.068Z,79.10
2017-06-01T02:57:13.166Z,79.40
2017-06-01T02:59:42.261Z,79.40
2017-06-01T03:02:11.356Z,79.60
2017-06-01T03:04:40.477Z,79.60
2017-06-01T03:07:09.566Z,79.60
2017-06-01T03:09:38.649Z,78.80
2017-06-01T03:12:07.708Z,79.50
2017-06-01T03:14:36.837Z,79.30
2017-06-01T03:17:05.880Z,80.00
2017-06-01T03:19:34.961Z,79.40
2017-06-01T03:22:04.024Z,79.00
2017-06-01T03:24:33.072Z,78.90
2017-06-01T03:27:02.198Z,79.20
2017-06-01T03:29:31.350Z,79.80
2017-06-01T03:32:00.419Z,79.50
2017-06-01T03:34:29.490Z,79.30
2017-06-01T03:36:58.537Z,79.40
2017-06-01T03:39:27.587Z,79.20
2017-06-01T03:41:56.666Z,78.80
2017-06-01T03:44:25.784Z,78.90
2017-06-01T03:46:54.825Z,79.10
2017-06-01T03:49:23.886Z,79.20
2017-06-01T03:51:52.973Z,79.10
2017-06-01T03:54:22.128Z,78.90
2017-06-01T03:56:51.175Z,78.90
2017-06-01T03:59:20.220Z,78.80
2017-06-01T04:01:49.353Z,78.80
2017-06-01T04:04:18.402Z,78.70
2017-06-01T04:06:47.498Z,78.50
2017-06-01T04:09:16.545Z,78.20
2017-06-01T04:11:45.638Z,78.10
2017-06-01T04:14:14.697Z,77.80
2017-06-01T04:16:43.835Z,78.00
2017-06-01T04:19:12.924Z,77.60
2017-06-01T04:21:42.026Z,77.50
2017-06-01T04:24:11.328Z,77.10
2017-06-01T04:26:40.440Z,77.30
2017-06-01T04:29:09.490Z,77.10
2017-06-01T04:31:38.711Z,76.70
2017-06-01T04:34:07.762Z,76.30
2017-06-01T04:36:36.906Z,76.20
2017-06-01T04:39:06.005Z,76.10
2017-06-01T04:41:35.060Z,76.00
2017-06-01T04:44:04.166Z,75.80
2017-06-01T04:46:33.222Z,75.30
2017-06-01T04:49:02.295Z,75.50
2017-06-01T04:51:31.376Z,75.00
2017-06-01T04:54:00.493Z,74.40
2017-06-01T04:56:29.686Z,74.60
2017-06-01T04:58:58.894Z,74.80
2017-06-01T05:01:27.901Z,74.40
2017-06-01T05:03:56.960Z,74.70
2017-06-01T05:06:26.014Z,74.70
2017-06-01T05:08:55.096Z,75.70
2017-06-01T05:11:24.140Z,73.30
2017-06-01T05:13:53.188Z,72.90
2017-06-01T05:16:22.261Z,73.60
2017-06-01T05:18:51.431Z,72.40
2017-06-01T05:21:20.577Z,71.30
2017-06-01T05:23:49.674Z,71.80
2017-06-01T05:26:18.769Z,72.00
2017-06-01T05:28:47.834Z,72.40
2017-06-01T05:31:16.961Z,71.10
2017-06-01T05:33:46.066Z,73.90
2017-06-01T05:36:15.104Z,71.50
2017-06-01T05:38:44.323Z,70.50
2017-06-01T05:41:13.377Z,71.30
2017-06-01T05:43:42.422Z,69.80
2017-06-01T05:46:11.545Z,71.10
2017-06-01T05:48:40.592Z,71.30
2017-06-01T05:51:09.645Z,70.00
2017-06-01T05:53:38.724Z,69.50
2017-06-01T05:56:07.820Z,70.50
2017-06-01T05:58:36.932Z,71.50
2017-06-01T06:01:05.981Z,70.30
2017-06-01T06:03:35.122Z,70.50
2017-06-01T06:06:04.194Z,69.90
2017-06-01T06:08:33.305Z,70.20
2017-06-01T06:11:02.392Z,70.70
2017-06-01T06:13:31.442Z,69.00
2017-06-01T06:16:00.588Z,69.10
2017-06-01T06:18:29.630Z,69.10
2017-06-01T06:20:58.694Z,68.80
2017-06-01T06:23:27.833Z,69.50
2017-06-01T06:25:56.919Z,69.60
2017-06-01T06:28:26.030Z,69.30
2017-06-01T06:30:55.095Z,69.40
2017-06-01T06:33:24.149Z,69.30
2017-06-01T06:35:53.232Z,69.50
2017-06-01T06:38:22.284Z,68.60
2017-06-01T06:40:51.421Z,67.90
2017-06-01T06:43:20.486Z,68.10
2017-06-01T06:45:49.592Z,67.50
2017-06-01T06:48:18.656Z,67.30
2017-06-01T06:50:47.781Z,66.80
2017-06-01T06:53:16.848Z,67.60
2017-06-01T06:55:45.888Z,67.50
2017-06-01T06:58:14.985Z,67.00
2017-06-01T07:00:44.057Z,65.80
2017-06-01T07:03:13.165Z,65.50
2017-06-01T07:05:42.248Z,65.90
2017-06-01T07:08:11.317Z,65.30
2017-06-01T07:10:40.408Z,64.70
2017-06-01T07:13:12.681Z,63.80
2017-06-01T07:15:44.620Z,63.80
2017-06-01T07:18:17.984Z,64.20
2017-06-01T07:20:48.470Z,64.90
2017-06-01T07:23:18.135Z,62.60
2017-06-01T07:25:50.461Z,61.90
2017-06-01T07:28:22.723Z,61.30
2017-06-01T07:30:59.073Z,59.80
2017-06-01T07:33:30.360Z,61.10
2017-06-01T07:36:04.999Z,60.20
2017-06-01T07:38:34.372Z,59.80
2017-06-01T07:41:06.016Z,60.40
2017-06-01T07:43:37.678Z,59.50
2017-06-01T07:46:09.644Z,59.60
2017-06-01T07:48:44.761Z,59.60
2017-06-01T07:51:17.027Z,59.00
2017-06-01T07:53:58.893Z,59.50
2017-06-01T07:56:35.825Z,58.50
2017-06-01T07:59:08.862Z,56.70
2017-06-01T08:01:40.149Z,57.40
2017-06-01T08:04:12.044Z,57.70
2017-06-01T08:06:45.222Z,57.80
2017-06-01T08:09:16.865Z,58.10
2017-06-01T08:11:51.621Z,57.30
2017-06-01T08:14:29.276Z,57.00
2017-06-01T08:17:04.339Z,56.50
2017-06-01T08:19:35.066Z,56.00
2017-06-01T08:22:04.558Z,55.60
2017-06-01T08:24:35.047Z,56.50
2017-06-01T08:27:11.966Z,57.50
2017-06-01T08:29:41.790Z,57.30
2017-06-01T08:32:14.383Z,57.70
2017-06-01T08:34:44.457Z,56.70
2017-06-01T08:37:19.202Z,56.20
2017-06-01T08:39:57.934Z,56.10
2017-06-01T08:42:27.656Z,56.00
2017-06-01T08:44:59.520Z,55.20
2017-06-01T08:47:30.546Z,54.80
2017-06-01T08:50:01.925Z,55.20
2017-06-01T08:52:35.343Z,56.00
2017-06-01T08:55:08.822Z,54.90
2017-06-01T08:57:40.916Z,52.60
2017-06-01T09:00:15.165Z,54.30
2017-06-01T09:02:44.460Z,52.50
2017-06-01T09:05:17.711Z,51.70
2017-06-01T09:07:48.662Z,50.70
2017-06-01T09:10:36.089Z,51.00
2017-06-01T09:13:06.878Z,50.70
2017-06-01T09:15:39.706Z,50.60
2017-06-01T09:18:10.230Z,50.70
2017-06-01T09:20:46.437Z,51.80
2017-06-01T09:23:17.968Z,51.80
2017-06-01T09:25:48.848Z,51.90
2017-06-01T09:28:20.095Z,50.60
2017-06-01T09:30:51.519Z,50.80
2017-06-01T09:33:25.880Z,51.50
2017-06-01T09:36:05.638Z,49.70
2017-06-01T09:38:37.036Z,48.40
2017-06-01T09:41:09.995Z,49.10
2017-06-01T09:43:40.437Z,48.60
2017-06-01T09:46:10.223Z,48.80
2017-06-01T09:48:39.959Z,49.10
2017-06-01T09:51:09.327Z,50.00
2017-06-01T09:53:40.472Z,49.70
2017-06-01T09:56:11.229Z,49.40
2017-06-01T09:58:43.656Z,48.60
2017-06-01T10:01:19.118Z,49.30
2017-06-01T10:03:50.842Z,46.60
2017-06-01T10:06:20.712Z,46.70
2017-06-01T10:08:55.399Z,47.90
2017-06-01T10:11:28.640Z,46.90
2017-06-01T10:14:03.602Z,46.60
2017-06-01T10:16:34.702Z,46.30
2017-06-01T10:19:04.969Z,45.60
2017-06-01T10:21:36.580Z,45.90
2017-06-01T10:26:47.692Z,41.90
2017-06-01T10:29:21.335Z,43.10
2017-06-01T10:31:55.716Z,43.80
2017-06-01T10:34:34.692Z,44.50
2017-06-01T10:37:05.019Z,44.60
2017-06-01T10:39:35.314Z,43.50
2017-06-01T10:42:06.384Z,43.20
2017-06-01T10:44:36.706Z,42.80
2017-06-01T10:47:08.421Z,43.30
2017-06-01T10:49:37.937Z,42.60
2017-06-01T10:52:08.899Z,42.00
2017-06-01T10:54:42.844Z,42.50
2017-06-01T10:57:18.426Z,42.30
2017-06-01T10:59:47.795Z,41.70
2017-06-01T11:02:18.564Z,41.80
2017-06-01T11:04:47.921Z,41.90
2017-06-01T11:07:20.082Z,41.70
2017-06-01T11:09:50.978Z,42.50
2017-06-01T11:12:20.829Z,41.80
2017-06-01T11:14:50.316Z,40.80
2017-06-01T11:17:19.550Z,39.80
2017-06-01T11:19:55.752Z,40.80
2017-06-01T11:22:26.448Z,40.10
2017-06-01T11:25:00.152Z,40.10
2017-06-01T11:27:30.272Z,37.60
2017-06-01T11:30:01.314Z,38.20
2017-06-01T11:32:31.571Z,40.40
2017-06-01T11:35:02.719Z,39.70
2017-06-01T11:37:33.564Z,38.90
2017-06-01T11:40:05.685Z,38.80
2017-06-01T11:42:35.612Z,39.70
2017-06-01T11:45:06.403Z,39.00
2017-06-01T11:47:37.404Z,39.40
2017-06-01T11:50:06.593Z,37.00
2017-06-01T11:52:35.683Z,36.30
2017-06-01T11:55:04.800Z,35.70
2017-06-01T11:57:33.876Z,36.70
2017-06-01T12:00:02.973Z,36.40
2017-06-01T12:02:32.067Z,36.60
2017-06-01T12:05:01.166Z,36.00
2017-06-01T12:07:30.275Z,30.40
2017-06-01T12:09:59.357Z,29.30
2017-06-01T12:12:28.410Z,28.50
2017-06-01T12:14:57.465Z,25.10
2017-06-01T12:17:26.500Z,25.30
2017-06-01T12:19:55.584Z,20.60
2017-06-01T12:22:24.642Z,18.90
2017-06-01T12:24:53.686Z,18.30
2017-06-01T12:27:22.741Z,19.50
2017-06-01T12:29:51.828Z,18.70
2017-06-01T12:32:20.911Z,18.30
2017-06-01T12:34:50.020Z,16.40
2017-06-01T12:37:19.207Z,16.60
2017-06-01T12:39:48.306Z,16.40
2017-06-01T12:42:17.407Z,17.30
2017-06-01T12:44:46.477Z,18.20
2017-06-01T12:47:15.517Z,17.80
2017-06-01T12:49:44.581Z,18.50
2017-06-01T12:52:13.709Z,18.60
2017-06-01T12:54:42.786Z,17.80
2017-06-01T12:57:11.873Z,17.30
2017-06-01T12:59:40.969Z,17.20
2017-06-01T13:02:10.080Z,17.10
2017-06-01T13:04:39.151Z,18.10
2017-06-01T13:07:08.187Z,17.40
2017-06-01T13:09:37.361Z,17.70
2017-06-01T13:12:06.405Z,18.00
2017-06-01T13:14:35.442Z,17.80
2017-06-01T13:17:04.546Z,18.20
2017-06-01T13:19:33.582Z,18.30
2017-06-01T13:22:02.735Z,19.00
2017-06-01T13:24:31.831Z,17.60
2017-06-01T13:27:00.869Z,17.40
2017-06-01T13:29:29.928Z,18.50
2017-06-01T13:31:58.964Z,17.90
2017-06-01T13:34:28.087Z,17.70
2017-06-01T13:36:57.210Z,17.20
2017-06-01T13:39:26.306Z,17.30
2017-06-01T13:41:55.396Z,17.00
2017-06-01T13:44:24.434Z,16.40
2017-06-01T13:46:53.591Z,17.00
2017-06-01T13:49:22.702Z,16.60
2017-06-01T13:51:51.768Z,16.80
2017-06-01T13:54:20.816Z,17.40
2017-06-01T13:56:49.883Z,18.20
2017-06-01T13:59:18.974Z,19.30
2017-06-01T14:01:48.030Z,19.00
2017-06-01T14:04:17.069Z,18.90
2017-06-01T14:06:46.162Z,19.50
2017-06-01T14:09:15.258Z,18.50
2017-06-01T14:11:44.323Z,18.00
2017-06-01T14:14:13.445Z,21.20
2017-06-01T14:16:42.485Z,18.10
2017-06-01T14:19:11.615Z,18.70
2017-06-01T14:21:40.649Z,18.80
2017-06-01T14:24:09.721Z,18.90
2017-06-01T14:26:38.823Z,19.40
2017-06-01T14:29:07.918Z,19.80
2017-06-01T14:31:36.993Z,19.10
2017-06-01T14:34:06.030Z,18.50
2017-06-01T14:39:10.389Z,18.70
2017-06-01T14:41:39.437Z,19.20
2017-06-01T14:44:08.536Z,19.10
2017-06-01T14:46:37.634Z,19.90
2017-06-01T14:49:06.673Z,20.60
2017-06-01T14:51:35.761Z,20.90
2017-06-01T14:54:04.821Z,21.80
2017-06-01T14:56:34.622Z,19.90
2017-06-01T14:59:03.661Z,18.80
2017-06-01T15:01:32.720Z,18.40
2017-06-01T15:04:01.777Z,17.20
2017-06-01T15:06:30.912Z,17.30
2017-06-01T15:09:00.020Z,18.40
2017-06-01T15:11:29.122Z,17.80
2017-06-01T15:13:58.276Z,18.10
2017-06-01T15:16:27.313Z,18.10
2017-06-01T15:18:56.404Z,18.80
2017-06-01T15:21:25.491Z,18.10
2017-06-01T15:23:54.531Z,18.50
2017-06-01T15:26:23.589Z,19.50
2017-06-01T15:28:52.629Z,19.10
2017-06-01T15:31:21.712Z,18.60
2017-06-01T15:33:50.765Z,19.10
2017-06-01T15:36:19.863Z,20.10
2017-06-01T15:38:48.974Z,21.20
2017-06-01T15:41:18.048Z,19.60
2017-06-01T15:43:47.145Z,20.20
2017-06-01T15:46:16.190Z,20.20
2017-06-01T15:48:45.269Z,20.50
2017-06-01T15:51:14.321Z,20.60
2017-06-01T15:53:43.425Z,18.80
2017-06-01T15:56:12.608Z,18.50
2017-06-01T15:58:41.733Z,18.90
2017-06-01T16:01:10.765Z,19.80
2017-06-01T16:03:39.912Z,20.40
2017-06-01T16:06:08.964Z,20.20
2017-06-01T16:08:38.114Z,21.20
2017-06-01T16:11:07.257Z,21.20
2017-06-01T16:13:36.343Z,20.90
2017-06-01T16:16:05.418Z,19.90
2017-06-01T16:18:34.567Z,21.40
2017-06-01T16:21:03.622Z,21.10
2017-06-01T16:23:32.652Z,22.00
2017-06-01T16:26:02.404Z,20.60
2017-06-01T16:28:31.459Z,20.80
2017-06-01T16:31:00.551Z,20.60
2017-06-01T16:33:29.589Z,20.80
2017-06-01T16:35:58.663Z,21.50
2017-06-01T16:38:27.846Z,21.90
2017-06-01T16:40:56.907Z,21.20
2017-06-01T16:43:26.570Z,21.20
2017-06-01T16:45:55.616Z,21.10
2017-06-01T16:48:24.938Z,21.60
2017-06-01T16:50:53.992Z,22.30
2017-06-01T16:53:23.120Z,22.20
2017-06-01T16:55:52.593Z,22.40
2017-06-01T16:58:21.650Z,22.20
2017-06-01T17:00:50.857Z,22.70
2017-06-01T17:03:19.951Z,23.10
2017-06-01T17:05:48.993Z,22.90
2017-06-01T17:08:18.111Z,22.90
2017-06-01T17:10:47.145Z,22.50
2017-06-01T17:13:16.234Z,22.70
2017-06-01T17:15:45.293Z,23.40
2017-06-01T17:18:14.527Z,23.50
2017-06-01T17:20:43.619Z,23.30
2017-06-01T17:23:12.733Z,23.10
2017-06-01T17:25:41.807Z,23.20
2017-06-01T17:28:12.218Z,22.80
2017-06-01T17:30:41.312Z,23.80
2017-06-01T17:33:10.387Z,23.80
2017-06-01T17:35:40.465Z,24.30
2017-06-01T17:38:09.528Z,24.50
2017-06-01T17:40:38.739Z,24.60
2017-06-01T17:43:07.826Z,24.20
2017-06-01T17:45:36.867Z,23.70
2017-06-01T17:48:06.712Z,23.20
2017-06-01T17:50:35.750Z,23.80
2017-06-01T17:53:04.969Z,24.60
2017-06-01T17:55:34.056Z,25.20
2017-06-01T17:58:03.124Z,25.70
2017-06-01T18:00:33.057Z,25.50
2017-06-01T18:03:02.119Z,25.90
2017-06-01T18:05:31.335Z,25.70
2017-06-01T18:08:00.386Z,25.40
2017-06-01T18:10:29.443Z,25.90
2017-06-01T18:12:58.518Z,25.80
2017-06-01T18:15:27.579Z,26.00
2017-06-01T18:17:56.675Z,26.00
2017-06-01T18:20:25.718Z,26.60
2017-06-01T18:22:54.767Z,26.50
2017-06-01T18:25:23.818Z,26.70
2017-06-01T18:27:52.861Z,27.30
2017-06-01T18:30:22.012Z,27.40
2017-06-01T18:32:51.097Z,27.70
2017-06-01T18:35:20.142Z,28.10
2017-06-01T18:37:49.284Z,28.30
2017-06-01T18:40:18.373Z,28.00
2017-06-01T18:42:47.489Z,29.20
2017-06-01T18:45:16.579Z,29.40
2017-06-01T18:47:45.660Z,30.00
2017-06-01T18:50:14.735Z,30.30
2017-06-01T18:52:43.874Z,30.90
2017-06-01T18:55:12.912Z,31.40
2017-06-01T18:57:42.053Z,32.10
2017-06-01T19:00:11.145Z,32.90
2017-06-01T19:02:40.260Z,33.60
2017-06-01T19:05:09.320Z,34.50
2017-06-01T19:07:38.438Z,35.20
2017-06-01T19:10:07.533Z,35.80
2017-06-01T19:12:36.649Z,36.40
2017-06-01T19:15:05.700Z,36.90
2017-06-01T19:17:34.767Z,38.00
2017-06-01T19:20:03.851Z,38.00
2017-06-01T19:22:32.941Z,37.90
2017-06-01T19:25:01.998Z,38.10
2017-06-01T19:27:31.105Z,38.50
2017-06-01T19:30:00.208Z,38.90
2017-06-01T19:32:29.256Z,40.60
2017-06-01T19:34:58.348Z,39.70
2017-06-01T19:37:27.384Z,40.10
2017-06-01T19:39:56.442Z,40.40
2017-06-01T19:42:25.572Z,40.70
2017-06-01T19:44:55.540Z,41.10
2017-06-01T19:47:24.649Z,42.10
2017-06-01T19:49:53.714Z,41.70
2017-06-01T19:52:22.753Z,42.10
2017-06-01T19:54:51.886Z,42.30
2017-06-01T19:57:20.969Z,42.40
2017-06-01T19:59:50.058Z,42.60
2017-06-01T20:02:19.158Z,43.40
2017-06-01T20:04:48.254Z,43.70
2017-06-01T20:07:17.331Z,43.60
2017-06-01T20:09:46.458Z,43.40
2017-06-01T20:12:15.529Z,43.60
2017-06-01T20:14:44.636Z,43.80
2017-06-01T20:17:13.675Z,44.00
2017-06-01T20:19:42.828Z,44.00
2017-06-01T20:22:11.933Z,44.70
2017-06-01T20:24:41.026Z,44.40
2017-06-01T20:27:10.134Z,44.20
2017-06-01T20:29:39.338Z,44.30
2017-06-01T20:32:08.442Z,44.30
2017-06-01T20:34:37.490Z,44.50
2017-06-01T20:37:06.644Z,44.50
2017-06-01T20:39:35.720Z,44.50
2017-06-01T20:42:04.777Z,44.80
2017-06-01T20:44:33.912Z,45.00
2017-06-01T20:47:02.989Z,45.10
2017-06-01T20:49:32.042Z,45.40
2017-06-01T20:52:01.078Z,45.30
2017-06-01T20:54:30.190Z,45.60
2017-06-01T20:56:59.277Z,45.70
2017-06-01T20:59:28.571Z,46.50
2017-06-01T21:01:57.606Z,45.80
2017-06-01T21:04:26.658Z,46.00
2017-06-01T21:06:55.726Z,46.10
2017-06-01T21:09:24.773Z,47.10
2017-06-01T21:11:53.848Z,46.90
2017-06-01T21:14:22.910Z,46.30
2017-06-01T21:16:51.959Z,46.90
2017-06-01T21:19:21.043Z,46.70
2017-06-01T21:21:50.137Z,46.40
2017-06-01T21:24:19.199Z,46.30
2017-06-01T21:26:48.423Z,47.60
2017-06-01T21:29:17.528Z,46.40
2017-06-01T21:31:46.568Z,47.50
2017-06-01T21:34:15.618Z,46.70
2017-06-01T21:36:44.684Z,46.80
2017-06-01T21:39:13.809Z,46.90
2017-06-01T21:41:42.913Z,47.20
2017-06-01T21:44:11.996Z,48.70
2017-06-01T21:46:41.045Z,47.40
2017-06-01T21:49:10.111Z,47.10
2017-06-01T21:51:39.141Z,47.10
2017-06-01T21:54:08.234Z,46.80
2017-06-01T21:56:37.283Z,47.30
2017-06-01T21:59:06.316Z,47.50
2017-06-01T22:01:35.384Z,47.50
2017-06-01T22:04:04.541Z,47.40
2017-06-01T22:06:33.610Z,47.70
2017-06-01T22:09:02.748Z,48.60
2017-06-01T22:11:31.873Z,48.30
2017-06-01T22:14:00.916Z,48.70
2017-06-01T22:16:29.957Z,48.30
2017-06-01T22:18:59.024Z,48.70
2017-06-01T22:21:28.125Z,48.40
2017-06-01T22:23:57.204Z,48.40
2017-06-01T22:26:26.251Z,48.30
2017-06-01T22:28:55.326Z,48.40
2017-06-01T22:31:24.426Z,48.50
2017-06-01T22:33:53.661Z,49.00
2017-06-01T22:36:22.810Z,49.10
2017-06-01T22:38:51.914Z,48.90
2017-06-01T22:41:20.974Z,48.80
2017-06-01T22:43:50.139Z,49.10
2017-06-01T22:46:19.189Z,49.00
2017-06-01T22:48:48.292Z,49.30
2017-06-01T22:51:17.333Z,49.50
2017-06-01T22:53:46.432Z,49.40
2017-06-01T22:56:15.493Z,49.60
2017-06-01T22:58:44.819Z,49.40
2017-06-01T23:01:13.913Z,50.00
2017-06-01T23:03:42.959Z,50.10
2017-06-01T23:06:12.011Z,50.20
2017-06-01T23:08:41.072Z,50.50
2017-06-01T23:11:10.201Z,50.90
2017-06-01T23:13:39.306Z,50.90
2017-06-01T23:16:08.358Z,51.10
2017-06-01T23:18:37.484Z,51.20
2017-06-01T23:21:06.557Z,51.50
2017-06-01T23:23:35.598Z,51.50
2017-06-01T23:26:04.685Z,51.70
2017-06-01T23:28:33.750Z,51.80
2017-06-01T23:31:02.832Z,51.90
2017-06-01T23:33:31.873Z,52.00
2017-06-01T23:36:00.969Z,52.20
2017-06-01T23:38:30.021Z,52.60
2017-06-01T23:40:59.164Z,53.50
2017-06-01T23:43:28.292Z,53.20
2017-06-01T23:45:57.387Z,52.90
2017-06-01T23:48:26.434Z,53.00
2017-06-01T23:50:55.583Z,53.10
2017-06-01T23:53:24.622Z,53.20
2017-06-01T23:55:53.709Z,53.40
2017-06-01T23:58:22.773Z,53.50
